createdAt,value
2022-08-28T00:00:31.338Z,8.70
2022-08-28T00:02:59.198Z,9.87
2022-08-28T00:05:28.104Z,10.50
2022-08-28T00:07:55.115Z,10.00
2022-08-28T00:10:24.119Z,10.47
2022-08-28T00:12:52.893Z,10.47
2022-08-28T00:15:23.932Z,10.30
2022-08-28T00:17:50.847Z,9.07
2022-08-28T00:20:19.903Z,10.07
2022-08-28T00:22:48.525Z,12.10
2022-08-28T00:25:18.568Z,9.70
2022-08-28T00:28:04.928Z,10.37
2022-08-28T00:30:48.169Z,10.23
2022-08-28T00:33:37.527Z,10.70
2022-08-28T00:36:04.906Z,11.67
2022-08-28T00:38:32.973Z,10.90
2022-08-28T00:41:03.999Z,11.37
2022-08-28T00:43:38.432Z,11.70
2022-08-28T00:46:10.894Z,11.20
2022-08-28T00:48:38.562Z,13.87
2022-08-28T00:51:25.413Z,12.60
2022-08-28T00:53:58.427Z,12.03
2022-08-28T00:56:27.654Z,11.33
2022-08-28T00:58:56.810Z,13.10
2022-08-28T01:01:24.192Z,13.57
2022-08-28T01:03:51.072Z,10.83
2022-08-28T01:06:20.615Z,11.40
2022-08-28T01:08:50.615Z,11.70
2022-08-28T01:11:19.536Z,11.63
2022-08-28T01:13:48.590Z,13.30
2022-08-28T01:16:19.299Z,13.93
2022-08-28T01:18:47.960Z,13.07
2022-08-28T01:21:29.394Z,11.93
2022-08-28T01:24:02.366Z,13.87
2022-08-28T01:26:30.045Z,14.83
2022-08-28T01:28:58.572Z,15.60
2022-08-28T01:31:27.266Z,15.70
2022-08-28T01:33:54.678Z,15.17
2022-08-28T01:36:21.680Z,14.00
2022-08-28T01:38:52.948Z,7.47
2022-08-28T01:41:20.773Z,14.80
2022-08-28T01:43:47.629Z,14.70
2022-08-28T01:46:14.892Z,14.70
2022-08-28T01:48:43.780Z,14.93
2022-08-28T01:51:11.992Z,13.97
2022-08-28T01:53:39.609Z,12.53
2022-08-28T01:56:11.752Z,13.50
2022-08-28T01:58:39.946Z,14.73
2022-08-28T02:01:17.019Z,14.30
2022-08-28T02:03:44.135Z,15.53
2022-08-28T02:06:12.111Z,15.90
2022-08-28T02:08:38.904Z,15.20
2022-08-28T02:11:07.384Z,15.70
2022-08-28T02:13:36.124Z,16.80
2022-08-28T02:16:06.020Z,16.77
2022-08-28T02:18:33.004Z,15.10
2022-08-28T02:20:59.825Z,16.43
2022-08-28T02:23:26.774Z,18.70
2022-08-28T02:25:53.555Z,20.73
2022-08-28T02:28:20.469Z,15.20
2022-08-28T02:30:47.397Z,15.90
2022-08-28T02:33:14.843Z,15.77
2022-08-28T02:35:42.808Z,17.20
2022-08-28T02:38:10.422Z,16.80
2022-08-28T02:40:39.912Z,16.97
2022-08-28T02:43:07.075Z,17.20
2022-08-28T02:45:35.014Z,16.10
2022-08-28T02:48:02.644Z,16.43
2022-08-28T02:50:31.095Z,17.37
2022-08-28T02:52:58.261Z,16.07
2022-08-28T02:55:25.343Z,15.17
2022-08-28T02:57:52.804Z,10.50
2022-08-28T03:00:22.918Z,16.77
2022-08-28T03:02:50.900Z,16.03
2022-08-28T03:05:21.832Z,16.20
2022-08-28T03:07:49.768Z,14.63
2022-08-28T03:10:17.023Z,16.30
2022-08-28T03:12:43.821Z,16.20
2022-08-28T03:15:11.048Z,15.47
2022-08-28T03:17:38.129Z,15.57
2022-08-28T03:20:07.667Z,16.80
2022-08-28T03:22:53.132Z,15.20
2022-08-28T03:25:20.131Z,15.53
2022-08-28T03:27:46.900Z,16.67
2022-08-28T03:30:14.431Z,14.67
2022-08-28T03:32:41.436Z,14.37
2022-08-28T03:35:08.501Z,15.83
2022-08-28T03:37:35.784Z,14.73
2022-08-28T03:40:03.608Z,15.90
2022-08-28T03:42:31.094Z,15.80
2022-08-28T03:44:59.505Z,14.97
2022-08-28T03:47:28.293Z,16.30
2022-08-28T03:49:57.205Z,14.70
2022-08-28T03:52:24.277Z,16.43
2022-08-28T03:54:51.181Z,16.30
2022-08-28T03:57:22.206Z,17.00
2022-08-28T03:59:51.067Z,16.27
2022-08-28T04:02:20.432Z,17.30
2022-08-28T04:04:48.837Z,18.07
2022-08-28T04:07:16.488Z,17.23
2022-08-28T04:09:43.393Z,15.57
2022-08-28T04:12:10.724Z,16.70
2022-08-28T04:14:38.008Z,16.10
2022-08-28T04:17:06.050Z,15.70
2022-08-28T04:19:33.599Z,15.43
2022-08-28T04:22:00.572Z,16.07
2022-08-28T04:24:27.346Z,16.60
2022-08-28T04:26:54.368Z,15.87
2022-08-28T04:29:22.570Z,16.30
2022-08-28T04:31:49.827Z,15.60
2022-08-28T04:34:16.768Z,15.47
2022-08-28T04:36:43.795Z,16.57
2022-08-28T04:39:11.137Z,18.53
2022-08-28T04:41:38.823Z,16.67
2022-08-28T04:44:06.315Z,18.27
2022-08-28T04:46:33.200Z,16.47
2022-08-28T04:49:00.619Z,16.03
2022-08-28T04:51:28.354Z,19.03
2022-08-28T04:53:55.201Z,18.03
2022-08-28T04:56:21.988Z,19.70
2022-08-28T04:58:48.840Z,18.23
2022-08-28T05:01:19.036Z,19.60
2022-08-28T05:03:47.928Z,19.40
2022-08-28T05:06:16.240Z,19.83
2022-08-28T05:08:43.563Z,18.90
2022-08-28T05:11:33.347Z,19.20
2022-08-28T05:14:07.029Z,20.27
2022-08-28T05:16:40.140Z,17.27
2022-08-28T05:19:06.963Z,19.00
2022-08-28T05:21:33.761Z,19.90
2022-08-28T05:24:00.620Z,20.60
2022-08-28T05:26:29.698Z,19.40
2022-08-28T05:28:58.373Z,18.23
2022-08-28T05:31:26.997Z,18.43
2022-08-28T05:33:54.145Z,19.27
2022-08-28T05:36:25.858Z,19.90
2022-08-28T05:38:59.930Z,18.17
2022-08-28T05:41:30.158Z,18.53
2022-08-28T05:44:03.526Z,18.17
2022-08-28T05:46:30.991Z,18.73
2022-08-28T05:49:00.153Z,18.70
2022-08-28T05:51:28.095Z,17.57
2022-08-28T05:53:57.591Z,16.73
2022-08-28T05:56:29.784Z,19.93
2022-08-28T05:59:00.803Z,20.70
2022-08-28T06:01:33.414Z,19.60
2022-08-28T06:04:01.314Z,19.83
2022-08-28T06:06:30.335Z,19.70
2022-08-28T06:08:59.717Z,19.93
2022-08-28T06:11:31.223Z,21.10
2022-08-28T06:14:03.198Z,22.20
2022-08-28T06:16:31.865Z,21.10
2022-08-28T06:18:59.230Z,21.50
2022-08-28T06:21:26.211Z,22.53
2022-08-28T06:23:53.257Z,21.50
2022-08-28T06:26:20.095Z,21.60
2022-08-28T06:28:46.836Z,19.13
2022-08-28T06:31:24.723Z,21.37
2022-08-28T06:33:57.312Z,20.03
2022-08-28T06:36:27.497Z,19.50
2022-08-28T06:38:58.021Z,19.77
2022-08-28T06:41:26.526Z,22.23
2022-08-28T06:43:54.099Z,21.27
2022-08-28T06:46:21.919Z,20.50
2022-08-28T06:48:48.892Z,18.60
2022-08-28T06:51:15.667Z,20.57
2022-08-28T06:53:45.629Z,19.27
2022-08-28T06:56:25.389Z,19.80
2022-08-28T06:58:54.759Z,19.90
2022-08-28T07:01:29.565Z,20.60
2022-08-28T07:04:03.998Z,18.90
2022-08-28T07:06:38.418Z,19.47
2022-08-28T07:09:07.694Z,20.37
2022-08-28T07:11:35.668Z,16.10
2022-08-28T07:14:03.044Z,18.90
2022-08-28T07:16:34.198Z,17.57
2022-08-28T07:19:04.722Z,17.50
2022-08-28T07:21:38.715Z,19.20
2022-08-28T07:24:07.318Z,17.50
2022-08-28T07:26:35.708Z,16.63
2022-08-28T07:29:10.035Z,16.80
2022-08-28T07:31:43.565Z,17.77
2022-08-28T07:34:11.597Z,16.70
2022-08-28T07:36:39.681Z,16.70
2022-08-28T07:39:07.933Z,16.43
2022-08-28T07:41:39.155Z,16.97
2022-08-28T07:44:26.450Z,17.33
2022-08-28T07:46:58.069Z,13.83
2022-08-28T07:49:25.569Z,13.70
2022-08-28T07:51:54.238Z,15.77
2022-08-28T07:54:22.187Z,15.40
2022-08-28T07:56:49.384Z,15.63
2022-08-28T07:59:19.202Z,15.50
2022-08-28T08:01:48.416Z,16.67
2022-08-28T08:04:16.317Z,13.57
2022-08-28T08:06:44.437Z,14.13
2022-08-28T08:09:14.984Z,13.10
2022-08-28T08:11:42.706Z,13.93
2022-08-28T08:14:10.105Z,12.57
2022-08-28T08:16:40.631Z,14.10
2022-08-28T08:19:10.194Z,14.07
2022-08-28T08:21:38.065Z,11.70
2022-08-28T08:24:05.524Z,12.57
2022-08-28T08:26:33.152Z,11.90
2022-08-28T08:29:00.729Z,9.97
2022-08-28T08:31:30.247Z,12.57
2022-08-28T08:34:01.460Z,10.60
2022-08-28T08:36:29.490Z,10.87
2022-08-28T08:38:59.584Z,9.90
2022-08-28T08:41:30.277Z,10.17
2022-08-28T08:44:06.986Z,9.87
2022-08-28T08:46:45.855Z,9.00
2022-08-28T08:49:19.688Z,10.23
2022-08-28T08:52:16.297Z,9.27
2022-08-28T08:54:46.977Z,9.27
2022-08-28T08:57:15.524Z,8.47
2022-08-28T08:59:42.413Z,9.90
2022-08-28T09:02:22.212Z,8.80
2022-08-28T09:05:05.256Z,9.03
2022-08-28T09:07:41.101Z,9.10
2022-08-28T09:10:15.581Z,9.10
2022-08-28T09:13:05.302Z,8.60
2022-08-28T09:15:42.647Z,8.67
2022-08-28T09:18:26.207Z,9.40
2022-08-28T09:20:55.967Z,8.53
2022-08-28T09:23:24.826Z,8.43
2022-08-28T09:25:56.673Z,8.03
2022-08-28T09:28:38.999Z,6.70
2022-08-28T09:31:13.468Z,8.00
2022-08-28T09:33:45.218Z,7.70
2022-08-28T09:36:24.351Z,7.53
2022-08-28T09:39:12.805Z,8.03
2022-08-28T09:42:07.315Z,7.80
2022-08-28T09:44:46.141Z,7.13
2022-08-28T09:47:46.492Z,6.80
2022-08-28T09:50:34.112Z,7.20
2022-08-28T09:53:10.013Z,6.97
2022-08-28T09:55:49.277Z,6.90
2022-08-28T09:58:18.628Z,6.43
2022-08-28T10:00:57.624Z,7.40
2022-08-28T10:03:36.158Z,7.43
2022-08-28T10:06:08.056Z,6.20
2022-08-28T10:09:05.320Z,6.43
2022-08-28T10:11:44.308Z,6.33
2022-08-28T10:14:35.347Z,6.50
2022-08-28T10:17:04.837Z,5.90
2022-08-28T10:20:09.488Z,6.17
2022-08-28T10:22:51.375Z,5.73
2022-08-28T10:25:35.798Z,6.20
2022-08-28T10:28:31.633Z,6.40
2022-08-28T10:31:31.632Z,6.07
2022-08-28T10:34:28.713Z,5.90
2022-08-28T10:37:31.833Z,6.03
2022-08-28T10:40:04.527Z,5.80
2022-08-28T10:42:35.965Z,6.20
2022-08-28T10:45:19.893Z,5.47
2022-08-28T10:47:51.861Z,5.97
2022-08-28T10:50:33.796Z,5.70
2022-08-28T10:53:05.544Z,6.20
2022-08-28T10:55:48.837Z,5.67
2022-08-28T10:58:23.843Z,5.20
2022-08-28T11:00:55.319Z,6.50
2022-08-28T11:03:34.508Z,6.40
2022-08-28T11:06:36.260Z,5.50
2022-08-28T11:09:25.096Z,5.70
2022-08-28T11:12:05.639Z,6.20
2022-08-28T11:14:47.562Z,5.97
2022-08-28T11:17:30.449Z,5.97
2022-08-28T11:20:06.304Z,5.90
2022-08-28T11:23:07.692Z,5.60
2022-08-28T11:25:41.773Z,6.90
2022-08-28T11:28:17.361Z,5.17
2022-08-28T11:30:47.301Z,5.30
2022-08-28T11:33:39.082Z,5.50
2022-08-28T11:36:19.616Z,6.00
2022-08-28T11:38:46.858Z,5.60
2022-08-28T11:41:30.351Z,6.03
2022-08-28T11:44:09.401Z,5.17
2022-08-28T11:46:47.877Z,5.00
2022-08-28T11:49:24.536Z,5.30
2022-08-28T11:52:19.012Z,6.50
2022-08-28T11:55:09.825Z,5.53
2022-08-28T12:00:38.295Z,5.10
2022-08-28T12:03:24.264Z,4.90
2022-08-28T12:05:54.800Z,5.53
2022-08-28T12:09:01.781Z,4.67
2022-08-28T12:11:40.526Z,4.90
2022-08-28T12:14:30.020Z,5.37
2022-08-28T12:16:59.482Z,4.70
2022-08-28T12:19:55.513Z,4.33
2022-08-28T12:22:26.565Z,5.40
2022-08-28T12:24:59.510Z,5.40
2022-08-28T12:27:26.936Z,5.30
2022-08-28T12:29:59.980Z,5.27
2022-08-28T12:32:38.068Z,5.00
2022-08-28T12:35:17.067Z,4.50
2022-08-28T12:38:01.373Z,5.43
2022-08-28T12:40:50.187Z,5.33
2022-08-28T12:43:45.659Z,5.40
2022-08-28T12:46:26.872Z,5.23
2022-08-28T12:49:02.283Z,5.47
2022-08-28T12:51:32.033Z,5.13
2022-08-28T12:54:02.101Z,5.07
2022-08-28T12:56:34.042Z,5.90
2022-08-28T12:59:32.372Z,6.00
2022-08-28T13:02:27.433Z,4.97
2022-08-28T13:05:02.867Z,5.50
2022-08-28T13:07:32.820Z,5.03
2022-08-28T13:10:22.551Z,4.80
2022-08-28T13:13:06.451Z,5.07
2022-08-28T13:15:46.774Z,4.80
2022-08-28T13:19:10.908Z,5.10
2022-08-28T13:22:00.543Z,4.47
2022-08-28T13:24:27.471Z,4.57
2022-08-28T13:27:16.795Z,4.87
2022-08-28T13:29:55.672Z,4.60
2022-08-28T13:32:27.410Z,4.73
2022-08-28T13:35:06.366Z,4.40
2022-08-28T13:37:46.850Z,4.63
2022-08-28T13:40:45.818Z,4.77
2022-08-28T13:43:12.507Z,4.30
2022-08-28T13:45:43.940Z,4.30
2022-08-28T13:48:13.902Z,4.40
2022-08-28T13:50:46.565Z,4.80
2022-08-28T13:53:15.034Z,4.70
2022-08-28T13:55:42.039Z,5.17
2022-08-28T13:58:08.875Z,4.70
2022-08-28T14:00:41.103Z,4.13
2022-08-28T14:03:26.429Z,4.20
2022-08-28T14:05:54.299Z,4.13
2022-08-28T14:08:21.895Z,5.03
2022-08-28T14:10:48.988Z,4.23
2022-08-28T14:13:15.847Z,3.70
2022-08-28T14:15:42.729Z,3.77
2022-08-28T14:18:09.496Z,4.23
2022-08-28T14:20:38.657Z,4.57
2022-08-28T14:23:05.545Z,4.50
2022-08-28T14:25:37.110Z,4.67
2022-08-28T14:28:05.919Z,5.23
2022-08-28T14:30:32.728Z,4.83
2022-08-28T14:32:59.505Z,5.03
2022-08-28T14:35:26.674Z,5.63
2022-08-28T14:37:53.462Z,4.13
2022-08-28T14:40:20.634Z,4.00
2022-08-28T14:42:47.651Z,4.20
2022-08-28T14:45:14.535Z,4.53
2022-08-28T14:47:41.441Z,5.10
2022-08-28T14:50:08.749Z,4.40
2022-08-28T14:52:35.735Z,4.60
2022-08-28T14:55:02.570Z,4.50
2022-08-28T14:57:29.420Z,5.03
2022-08-28T14:59:56.212Z,4.80
2022-08-28T15:02:23.434Z,4.40
2022-08-28T15:04:50.222Z,5.50
2022-08-28T15:07:17.082Z,4.70
2022-08-28T15:09:43.850Z,5.70
2022-08-28T15:12:11.434Z,5.10
2022-08-28T15:14:38.397Z,5.50
2022-08-28T15:17:05.931Z,5.10
2022-08-28T15:19:33.234Z,4.77
2022-08-28T15:22:00.929Z,4.97
2022-08-28T15:24:31.396Z,4.60
2022-08-28T15:26:59.684Z,5.37
2022-08-28T15:29:28.237Z,4.90
2022-08-28T15:31:55.445Z,4.50
2022-08-28T15:34:28.133Z,4.73
2022-08-28T15:36:56.303Z,4.87
2022-08-28T15:39:45.945Z,4.60
2022-08-28T15:42:13.246Z,4.63
2022-08-28T15:44:40.111Z,5.47
2022-08-28T15:47:07.942Z,4.83
2022-08-28T15:49:38.848Z,5.30
2022-08-28T15:52:13.846Z,4.30
2022-08-28T15:54:41.517Z,4.70
2022-08-28T15:57:08.365Z,4.40
2022-08-28T15:59:48.914Z,4.80
2022-08-28T16:02:23.071Z,5.33
2022-08-28T16:04:50.563Z,4.13
2022-08-28T16:07:18.424Z,4.87
2022-08-28T16:09:45.311Z,4.70
2022-08-28T16:12:12.094Z,4.90
2022-08-28T16:14:38.960Z,4.57
2022-08-28T16:17:11.063Z,4.70
2022-08-28T16:19:39.930Z,5.27
2022-08-28T16:22:07.845Z,4.57
2022-08-28T16:24:35.071Z,5.00
2022-08-28T16:27:01.851Z,4.60
2022-08-28T16:29:28.652Z,4.90
2022-08-28T16:31:56.672Z,4.50
2022-08-28T16:34:27.063Z,4.67
2022-08-28T16:36:56.273Z,4.40
2022-08-28T16:39:23.062Z,4.80
2022-08-28T16:41:50.291Z,5.00
2022-08-28T16:44:22.147Z,5.10
2022-08-28T16:46:49.331Z,4.60
2022-08-28T16:49:16.372Z,4.77
2022-08-28T16:51:43.208Z,4.67
2022-08-28T16:54:10.100Z,5.07
2022-08-28T16:56:36.912Z,5.30
2022-08-28T16:59:04.603Z,4.57
2022-08-28T17:01:40.133Z,4.50
2022-08-28T17:04:09.800Z,4.73
2022-08-28T17:06:36.786Z,4.77
2022-08-28T17:09:04.165Z,4.40
2022-08-28T17:11:31.092Z,4.50
2022-08-28T17:13:58.986Z,4.63
2022-08-28T17:16:31.397Z,5.07
2022-08-28T17:18:59.285Z,4.83
2022-08-28T17:21:44.660Z,5.37
2022-08-28T17:24:14.841Z,4.00
2022-08-28T17:26:43.663Z,4.80
2022-08-28T17:29:10.955Z,4.93
2022-08-28T17:31:38.238Z,4.87
2022-08-28T17:34:07.235Z,4.50
2022-08-28T17:36:35.705Z,4.67
2022-08-28T17:39:05.837Z,4.97
2022-08-28T17:41:33.488Z,5.53
2022-08-28T17:44:01.379Z,4.70
2022-08-28T17:46:29.195Z,4.87
2022-08-28T17:48:57.660Z,5.27
2022-08-28T17:51:33.804Z,5.37
2022-08-28T17:54:18.594Z,5.03
2022-08-28T17:56:46.307Z,5.07
2022-08-28T17:59:14.179Z,5.30
2022-08-28T18:01:42.066Z,5.20
2022-08-28T18:04:09.202Z,4.90
2022-08-28T18:06:36.539Z,5.13
2022-08-28T18:09:04.456Z,5.73
2022-08-28T18:11:31.487Z,4.77
2022-08-28T18:13:59.731Z,5.03
2022-08-28T18:16:31.113Z,5.60
2022-08-28T18:18:59.741Z,5.70
2022-08-28T18:21:26.995Z,5.33
2022-08-28T18:23:53.999Z,5.30
2022-08-28T18:26:20.929Z,6.10
2022-08-28T18:28:48.251Z,6.30
2022-08-28T18:31:15.187Z,5.83
2022-08-28T18:33:42.068Z,5.20
2022-08-28T18:36:13.916Z,5.53
2022-08-28T18:38:41.855Z,5.97
2022-08-28T18:41:10.029Z,5.50
2022-08-28T18:43:37.108Z,5.90
2022-08-28T18:46:05.391Z,6.43
2022-08-28T18:48:32.375Z,6.60
2022-08-28T18:50:59.216Z,5.63
2022-08-28T18:53:26.537Z,5.17
2022-08-28T18:55:55.097Z,7.00
2022-08-28T18:58:23.249Z,6.13
2022-08-28T19:00:50.151Z,6.77
2022-08-28T19:03:17.430Z,5.80
2022-08-28T19:05:44.365Z,6.93
2022-08-28T19:08:11.448Z,6.13
2022-08-28T19:10:38.428Z,6.90
2022-08-28T19:13:06.628Z,7.00
2022-08-28T19:15:35.705Z,5.90
2022-08-28T19:18:04.167Z,6.77
2022-08-28T19:20:31.739Z,5.83
2022-08-28T19:22:59.212Z,7.13
2022-08-28T19:25:29.366Z,7.33
2022-08-28T19:28:01.512Z,6.13
2022-08-28T19:30:32.834Z,6.50
2022-08-28T19:33:01.559Z,6.50
2022-08-28T19:35:28.322Z,6.83
2022-08-28T19:37:55.369Z,6.80
2022-08-28T19:40:22.794Z,6.83
2022-08-28T19:42:50.090Z,6.97
2022-08-28T19:45:17.843Z,6.23
2022-08-28T19:47:45.379Z,6.43
2022-08-28T19:50:14.543Z,7.00
2022-08-28T19:52:43.221Z,6.33
2022-08-28T19:55:18.279Z,7.43
2022-08-28T19:57:46.823Z,7.00
2022-08-28T20:00:17.678Z,7.00
2022-08-28T20:02:45.445Z,7.73
2022-08-28T20:05:12.561Z,6.93
2022-08-28T20:07:39.480Z,7.40
2022-08-28T20:10:07.402Z,7.53
2022-08-28T20:12:34.619Z,6.83
2022-08-28T20:15:03.698Z,6.93
2022-08-28T20:17:30.766Z,7.27
2022-08-28T20:20:02.434Z,6.83
2022-08-28T20:22:29.771Z,7.20
2022-08-28T20:24:56.601Z,7.10
2022-08-28T20:27:23.700Z,7.57
2022-08-28T20:29:50.490Z,6.33
2022-08-28T20:32:17.348Z,6.73
2022-08-28T20:34:44.692Z,6.83
2022-08-28T20:37:11.558Z,8.07
2022-08-28T20:39:41.491Z,7.23
2022-08-28T20:42:09.747Z,6.40
2022-08-28T20:44:36.537Z,6.50
2022-08-28T20:47:03.992Z,6.60
2022-08-28T20:49:30.813Z,7.03
2022-08-28T20:51:58.795Z,6.60
2022-08-28T20:54:29.510Z,7.07
2022-08-28T20:56:58.375Z,6.63
2022-08-28T20:59:28.845Z,7.23
2022-08-28T21:02:26.433Z,8.30
2022-08-28T21:04:53.796Z,7.13
2022-08-28T21:07:22.650Z,7.50
2022-08-28T21:10:05.828Z,7.70
2022-08-28T21:12:36.488Z,7.07
2022-08-28T21:15:05.064Z,7.10
2022-08-28T21:17:32.075Z,7.40
2022-08-28T21:20:01.774Z,7.30
2022-08-28T21:22:31.515Z,7.10
2022-08-28T21:24:58.782Z,7.30
2022-08-28T21:27:25.630Z,6.77
2022-08-28T21:29:55.929Z,7.00
2022-08-28T21:32:22.821Z,7.00
2022-08-28T21:34:49.616Z,6.87
2022-08-28T21:37:16.390Z,7.00
2022-08-28T21:39:43.211Z,6.63
2022-08-28T21:42:10.408Z,6.00
2022-08-28T21:44:38.555Z,6.70
2022-08-28T21:47:05.961Z,7.00
2022-08-28T21:49:32.756Z,7.07
2022-08-28T21:52:03.076Z,7.13
2022-08-28T21:54:30.743Z,8.10
2022-08-28T21:56:58.913Z,7.97
2022-08-28T21:59:28.482Z,8.83
2022-08-28T22:02:01.277Z,8.37
2022-08-28T22:04:28.257Z,8.93
2022-08-28T22:06:55.016Z,9.13
2022-08-28T22:09:21.912Z,9.13
2022-08-28T22:11:48.683Z,10.13
2022-08-28T22:14:15.520Z,9.40
2022-08-28T22:16:42.634Z,10.70
2022-08-28T22:19:09.441Z,9.20
2022-08-28T22:21:55.042Z,8.80
2022-08-28T22:24:21.857Z,8.20
2022-08-28T22:26:48.650Z,7.33
2022-08-28T22:29:15.491Z,8.30
2022-08-28T22:31:45.641Z,7.97
2022-08-28T22:34:14.130Z,8.10
2022-08-28T22:36:40.949Z,8.73
2022-08-28T22:39:07.727Z,8.93
2022-08-28T22:41:37.479Z,8.30
2022-08-28T22:44:04.702Z,8.60
2022-08-28T22:46:31.450Z,8.27
2022-08-28T22:48:59.265Z,8.00
2022-08-28T22:51:26.088Z,7.70
2022-08-28T22:53:52.939Z,7.60
2022-08-28T22:56:19.920Z,8.53
2022-08-28T22:58:46.823Z,8.33
2022-08-28T23:01:17.634Z,8.43
2022-08-28T23:03:45.256Z,8.30
2022-08-28T23:06:13.729Z,7.17
2022-08-28T23:08:41.196Z,7.40
2022-08-28T23:11:08.939Z,7.00
2022-08-28T23:13:36.090Z,7.40
2022-08-28T23:16:03.272Z,6.90
2022-08-28T23:18:41.545Z,7.27
2022-08-28T23:21:19.381Z,7.23
2022-08-28T23:23:46.637Z,7.60
2022-08-28T23:26:15.072Z,8.00
2022-08-28T23:28:42.573Z,7.27
2022-08-28T23:31:10.093Z,7.07
2022-08-28T23:33:36.973Z,6.77
2022-08-28T23:36:04.370Z,7.47
2022-08-28T23:38:31.179Z,7.37
2022-08-28T23:40:58.593Z,7.20
2022-08-28T23:43:25.383Z,7.97
2022-08-28T23:45:52.780Z,8.20
2022-08-28T23:48:20.705Z,7.10
2022-08-28T23:50:47.823Z,8.20
2022-08-28T23:53:14.766Z,8.30
2022-08-28T23:55:44.236Z,7.37
2022-08-28T23:58:11.212Z,7.40
